LFSN 181700Z AUTO 14003KT CAVOK 24/17 Q1013

ElémentsDécodage
LFSN Station météo située sur l'aérodrome de NANCY Essey
181700Z émis le 18 du mois à 17h00 UTC
AUTO Bulletin édité par un automate
14003KT vent du 140°, 03 noeuds
CAVOK Ceiling And Visibility OK
- Visibilité de 10 Km ou plus
- Pas de nuage au-dessous de 1500m ou au-dessous de l'altitude minimale du secteur la plus élevée (si>1500m) et absence de CB
- pas de temps présent significatif
24/17 température 24°C, point de rosée 17°C
 soit une humidité relative de 65%
Q1013 la pression au niveau de la mer (QNH) est de 1013 hPa